Terminal Aerodrome Forecast
Issued by NWS Green Bay, WI

Home | Current Version | Previous Version | Text Only | Print | Product List | Glossary Off
Versions: 1 2 3 4 5 6 7 8 9 10 11 12 13 14 15 16 17 18 19 20 21 22 23 24 25 26 27 28 29 30 31 32 33 34 35 36 37 38 39 40 41 42 43 44 45 46 47 48 49 50

000
FTUS43 KGRB 251700
TAFGRB
TAF
KGRB 251732Z 2518/2618 27010KT P6SM -SN BKN020
      TEMPO 2518/2522 SCT020
     FM252200 26004KT P6SM SCT020
     FM260700 00000KT 4SM BR BKN250
     FM261100 00000KT 2SM BR BKN200
     FM261600 07003KT 6SM HZ SCT090 BKN150=

USA.gov is the U.S. government's official web portal to all federal, state and local government web resources and services.